sensor_id;sensor_type;location;lat;lon;timestamp;P1;durP1;ratioP1;P2;durP2;ratioP2
21979;SDS011;11154;48.558;9.234;2022-09-03T00:02:01;2.47;;;1.80;;
21979;SDS011;11154;48.558;9.234;2022-09-03T00:04:09;2.88;;;1.52;;
21979;SDS011;11154;48.558;9.234;2022-09-03T00:06:20;1.50;;;1.27;;
21979;SDS011;11154;48.558;9.234;2022-09-03T00:08:27;2.35;;;1.50;;
21979;SDS011;11154;48.558;9.234;2022-09-03T00:10:36;1.70;;;1.48;;
21979;SDS011;11154;48.558;9.234;2022-09-03T00:12:43;2.35;;;1.60;;
21979;SDS011;11154;48.558;9.234;2022-09-03T00:14:49;2.63;;;1.83;;
21979;SDS011;11154;48.558;9.234;2022-09-03T00:16:54;2.15;;;1.23;;
21979;SDS011;11154;48.558;9.234;2022-09-03T00:19:00;4.22;;;1.40;;
21979;SDS011;11154;48.558;9.234;2022-09-03T00:21:06;1.35;;;1.25;;
21979;SDS011;11154;48.558;9.234;2022-09-03T00:23:13;2.50;;;1.40;;
21979;SDS011;11154;48.558;9.234;2022-09-03T00:25:23;4.43;;;1.38;;
21979;SDS011;11154;48.558;9.234;2022-09-03T00:27:29;2.55;;;1.30;;
21979;SDS011;11154;48.558;9.234;2022-09-03T00:29:34;1.33;;;1.10;;
21979;SDS011;11154;48.558;9.234;2022-09-03T00:31:43;2.10;;;1.30;;
21979;SDS011;11154;48.558;9.234;2022-09-03T00:33:47;2.53;;;1.70;;
21979;SDS011;11154;48.558;9.234;2022-09-03T00:35:53;2.33;;;1.38;;
21979;SDS011;11154;48.558;9.234;2022-09-03T00:38:06;2.38;;;1.50;;
21979;SDS011;11154;48.558;9.234;2022-09-03T00:40:10;1.23;;;1.08;;
21979;SDS011;11154;48.558;9.234;2022-09-03T00:42:30;1.80;;;1.13;;
21979;SDS011;11154;48.558;9.234;2022-09-03T00:44:48;2.78;;;1.50;;
21979;SDS011;11154;48.558;9.234;2022-09-03T00:47:07;2.55;;;1.25;;
21979;SDS011;11154;48.558;9.234;2022-09-03T00:49:18;1.63;;;1.50;;
21979;SDS011;11154;48.558;9.234;2022-09-03T00:51:31;2.55;;;1.10;;
21979;SDS011;11154;48.558;9.234;2022-09-03T00:53:41;2.08;;;1.30;;
21979;SDS011;11154;48.558;9.234;2022-09-03T00:55:51;2.30;;;1.45;;
21979;SDS011;11154;48.558;9.234;2022-09-03T00:58:04;1.85;;;1.33;;
21979;SDS011;11154;48.558;9.234;2022-09-03T01:00:19;2.50;;;1.40;;
21979;SDS011;11154;48.558;9.234;2022-09-03T01:02:23;3.03;;;1.23;;
21979;SDS011;11154;48.558;9.234;2022-09-03T01:04:34;3.20;;;1.30;;
21979;SDS011;11154;48.558;9.234;2022-09-03T01:06:48;2.00;;;1.40;;
21979;SDS011;11154;48.558;9.234;2022-09-03T01:09:04;3.20;;;1.20;;
21979;SDS011;11154;48.558;9.234;2022-09-03T01:11:14;4.85;;;1.25;;
21979;SDS011;11154;48.558;9.234;2022-09-03T01:13:22;1.77;;;1.38;;
21979;SDS011;11154;48.558;9.234;2022-09-03T01:15:34;3.70;;;1.67;;
21979;SDS011;11154;48.558;9.234;2022-09-03T01:17:53;3.75;;;1.60;;
21979;SDS011;11154;48.558;9.234;2022-09-03T01:20:11;2.60;;;1.50;;
21979;SDS011;11154;48.558;9.234;2022-09-03T01:22:26;2.10;;;1.70;;
21979;SDS011;11154;48.558;9.234;2022-09-03T01:24:55;2.53;;;1.50;;
21979;SDS011;11154;48.558;9.234;2022-09-03T01:27:16;4.15;;;1.40;;
21979;SDS011;11154;48.558;9.234;2022-09-03T01:29:32;3.80;;;1.50;;
21979;SDS011;11154;48.558;9.234;2022-09-03T01:31:43;1.80;;;1.30;;
21979;SDS011;11154;48.558;9.234;2022-09-03T01:34:01;3.15;;;1.30;;
21979;SDS011;11154;48.558;9.234;2022-09-03T01:36:12;2.08;;;1.27;;
21979;SDS011;11154;48.558;9.234;2022-09-03T01:38:25;2.38;;;1.20;;
21979;SDS011;11154;48.558;9.234;2022-09-03T01:40:33;3.05;;;1.35;;
21979;SDS011;11154;48.558;9.234;2022-09-03T01:42:46;1.40;;;1.10;;
21979;SDS011;11154;48.558;9.234;2022-09-03T01:45:01;1.10;;;1.00;;
21979;SDS011;11154;48.558;9.234;2022-09-03T01:47:14;2.58;;;1.20;;
21979;SDS011;11154;48.558;9.234;2022-09-03T01:49:28;1.58;;;1.13;;
21979;SDS011;11154;48.558;9.234;2022-09-03T01:51:35;2.47;;;1.10;;
21979;SDS011;11154;48.558;9.234;2022-09-03T01:53:44;1.67;;;1.10;;
21979;SDS011;11154;48.558;9.234;2022-09-03T01:56:18;2.88;;;1.25;;
21979;SDS011;11154;48.558;9.234;2022-09-03T01:58:34;1.73;;;1.20;;
21979;SDS011;11154;48.558;9.234;2022-09-03T02:00:43;4.00;;;1.30;;
21979;SDS011;11154;48.558;9.234;2022-09-03T02:02:50;1.52;;;1.35;;
21979;SDS011;11154;48.558;9.234;2022-09-03T02:04:56;2.25;;;1.40;;
21979;SDS011;11154;48.558;9.234;2022-09-03T02:07:00;2.78;;;1.35;;
21979;SDS011;11154;48.558;9.234;2022-09-03T02:09:03;2.53;;;1.30;;
21979;SDS011;11154;48.558;9.234;2022-09-03T02:11:04;2.17;;;1.38;;
21979;SDS011;11154;48.558;9.234;2022-09-03T02:13:09;2.08;;;1.48;;
21979;SDS011;11154;48.558;9.234;2022-09-03T02:15:16;1.98;;;1.38;;
21979;SDS011;11154;48.558;9.234;2022-09-03T02:17:21;2.15;;;1.25;;
21979;SDS011;11154;48.558;9.234;2022-09-03T02:19:25;2.95;;;1.48;;
21979;SDS011;11154;48.558;9.234;2022-09-03T02:21:30;3.90;;;1.60;;
21979;SDS011;11154;48.558;9.234;2022-09-03T02:23:37;1.85;;;1.50;;
21979;SDS011;11154;48.558;9.234;2022-09-03T02:25:40;3.28;;;1.33;;
21979;SDS011;11154;48.558;9.234;2022-09-03T02:27:46;1.58;;;1.33;;
21979;SDS011;11154;48.558;9.234;2022-09-03T02:29:49;3.00;;;1.60;;
21979;SDS011;11154;48.558;9.234;2022-09-03T02:31:51;2.78;;;1.35;;
21979;SDS011;11154;48.558;9.234;2022-09-03T02:33:54;2.25;;;1.45;;
21979;SDS011;11154;48.558;9.234;2022-09-03T02:35:57;2.25;;;1.63;;
21979;SDS011;11154;48.558;9.234;2022-09-03T02:38:07;1.70;;;1.40;;
21979;SDS011;11154;48.558;9.234;2022-09-03T02:40:10;2.72;;;1.52;;
21979;SDS011;11154;48.558;9.234;2022-09-03T02:42:12;2.20;;;1.33;;
21979;SDS011;11154;48.558;9.234;2022-09-03T02:44:15;2.08;;;1.50;;
21979;SDS011;11154;48.558;9.234;2022-09-03T02:48:31;2.50;;;1.40;;
21979;SDS011;11154;48.558;9.234;2022-09-03T02:50:38;2.00;;;1.10;;
21979;SDS011;11154;48.558;9.234;2022-09-03T02:52:40;2.22;;;1.40;;
21979;SDS011;11154;48.558;9.234;2022-09-03T02:54:42;5.10;;;1.45;;
21979;SDS011;11154;48.558;9.234;2022-09-03T02:56:44;1.75;;;1.20;;
21979;SDS011;11154;48.558;9.234;2022-09-03T02:58:47;1.67;;;1.33;;
21979;SDS011;11154;48.558;9.234;2022-09-03T03:00:49;1.30;;;1.20;;
21979;SDS011;11154;48.558;9.234;2022-09-03T03:02:51;2.17;;;1.42;;
21979;SDS011;11154;48.558;9.234;2022-09-03T03:04:52;2.08;;;1.30;;
21979;SDS011;11154;48.558;9.234;2022-09-03T03:06:56;1.88;;;1.30;;
21979;SDS011;11154;48.558;9.234;2022-09-03T03:08:57;3.10;;;1.30;;
21979;SDS011;11154;48.558;9.234;2022-09-03T03:11:03;1.63;;;1.05;;
21979;SDS011;11154;48.558;9.234;2022-09-03T03:13:04;2.03;;;1.30;;
21979;SDS011;11154;48.558;9.234;2022-09-03T03:15:06;1.00;;;0.90;;
21979;SDS011;11154;48.558;9.234;2022-09-03T03:17:08;2.17;;;1.23;;
21979;SDS011;11154;48.558;9.234;2022-09-03T03:19:10;4.70;;;1.52;;
21979;SDS011;11154;48.558;9.234;2022-09-03T03:21:13;1.45;;;1.35;;
21979;SDS011;11154;48.558;9.234;2022-09-03T03:23:17;1.92;;;1.23;;
21979;SDS011;11154;48.558;9.234;2022-09-03T03:25:18;2.75;;;1.77;;
21979;SDS011;11154;48.558;9.234;2022-09-03T03:27:20;2.50;;;1.50;;
21979;SDS011;11154;48.558;9.234;2022-09-03T03:29:22;1.83;;;1.23;;
21979;SDS011;11154;48.558;9.234;2022-09-03T03:31:26;5.55;;;1.48;;
21979;SDS011;11154;48.558;9.234;2022-09-03T03:33:28;2.42;;;1.33;;
21979;SDS011;11154;48.558;9.234;2022-09-03T03:35:30;2.72;;;1.58;;
21979;SDS011;11154;48.558;9.234;2022-09-03T03:37:31;2.65;;;1.70;;
21979;SDS011;11154;48.558;9.234;2022-09-03T03:39:36;2.40;;;1.70;;
21979;SDS011;11154;48.558;9.234;2022-09-03T03:41:37;2.53;;;2.00;;
21979;SDS011;11154;48.558;9.234;2022-09-03T03:43:39;5.60;;;1.73;;
21979;SDS011;11154;48.558;9.234;2022-09-03T03:45:41;2.15;;;1.67;;
21979;SDS011;11154;48.558;9.234;2022-09-03T03:47:43;1.73;;;1.50;;
21979;SDS011;11154;48.558;9.234;2022-09-03T03:49:44;2.63;;;1.70;;
21979;SDS011;11154;48.558;9.234;2022-09-03T03:51:46;4.65;;;1.70;;
21979;SDS011;11154;48.558;9.234;2022-09-03T03:53:48;2.92;;;1.80;;
21979;SDS011;11154;48.558;9.234;2022-09-03T03:55:55;3.17;;;1.85;;
21979;SDS011;11154;48.558;9.234;2022-09-03T03:57:58;2.97;;;1.70;;
21979;SDS011;11154;48.558;9.234;2022-09-03T04:00:00;2.60;;;1.60;;
21979;SDS011;11154;48.558;9.234;2022-09-03T04:02:02;2.33;;;1.77;;
21979;SDS011;11154;48.558;9.234;2022-09-03T04:04:03;5.25;;;1.95;;
21979;SDS011;11154;48.558;9.234;2022-09-03T04:06:06;2.42;;;1.70;;
21979;SDS011;11154;48.558;9.234;2022-09-03T04:08:08;2.30;;;1.48;;
21979;SDS011;11154;48.558;9.234;2022-09-03T04:10:09;2.20;;;1.55;;
21979;SDS011;11154;48.558;9.234;2022-09-03T04:12:12;5.00;;;1.80;;
21979;SDS011;11154;48.558;9.234;2022-09-03T04:14:14;2.75;;;1.58;;
21979;SDS011;11154;48.558;9.234;2022-09-03T04:16:17;3.28;;;1.67;;
21979;SDS011;11154;48.558;9.234;2022-09-03T04:18:20;1.60;;;1.50;;
21979;SDS011;11154;48.558;9.234;2022-09-03T04:20:22;2.15;;;1.50;;
21979;SDS011;11154;48.558;9.234;2022-09-03T04:22:23;2.47;;;1.33;;
21979;SDS011;11154;48.558;9.234;2022-09-03T04:24:25;2.30;;;1.73;;
21979;SDS011;11154;48.558;9.234;2022-09-03T04:26:28;2.53;;;1.48;;
21979;SDS011;11154;48.558;9.234;2022-09-03T04:28:32;2.42;;;1.65;;
21979;SDS011;11154;48.558;9.234;2022-09-03T04:30:35;2.42;;;1.80;;
21979;SDS011;11154;48.558;9.234;2022-09-03T04:32:37;2.17;;;1.60;;
21979;SDS011;11154;48.558;9.234;2022-09-03T04:34:55;2.45;;;1.48;;
21979;SDS011;11154;48.558;9.234;2022-09-03T04:36:57;1.98;;;1.50;;
21979;SDS011;11154;48.558;9.234;2022-09-03T04:38:59;1.70;;;1.45;;
21979;SDS011;11154;48.558;9.234;2022-09-03T04:41:01;4.50;;;1.70;;
21979;SDS011;11154;48.558;9.234;2022-09-03T04:43:04;1.80;;;1.70;;
21979;SDS011;11154;48.558;9.234;2022-09-03T04:45:07;3.20;;;1.52;;
21979;SDS011;11154;48.558;9.234;2022-09-03T04:47:11;2.05;;;1.60;;
21979;SDS011;11154;48.558;9.234;2022-09-03T04:49:14;3.03;;;1.58;;
21979;SDS011;11154;48.558;9.234;2022-09-03T04:51:16;1.60;;;1.48;;
21979;SDS011;11154;48.558;9.234;2022-09-03T04:53:19;2.15;;;1.58;;
21979;SDS011;11154;48.558;9.234;2022-09-03T04:55:21;2.08;;;1.38;;
21979;SDS011;11154;48.558;9.234;2022-09-03T04:57:23;1.83;;;1.63;;
21979;SDS011;11154;48.558;9.234;2022-09-03T04:59:26;4.10;;;1.77;;
21979;SDS011;11154;48.558;9.234;2022-09-03T05:01:29;3.75;;;1.50;;
21979;SDS011;11154;48.558;9.234;2022-09-03T05:03:32;4.05;;;1.50;;
21979;SDS011;11154;48.558;9.234;2022-09-03T05:05:36;3.45;;;1.42;;
21979;SDS011;11154;48.558;9.234;2022-09-03T05:07:38;1.85;;;1.30;;
21979;SDS011;11154;48.558;9.234;2022-09-03T05:09:40;2.65;;;1.70;;
21979;SDS011;11154;48.558;9.234;2022-09-03T05:11:42;3.67;;;1.60;;
21979;SDS011;11154;48.558;9.234;2022-09-03T05:13:46;2.03;;;1.70;;
21979;SDS011;11154;48.558;9.234;2022-09-03T05:15:48;2.28;;;1.40;;
21979;SDS011;11154;48.558;9.234;2022-09-03T05:17:55;2.50;;;1.65;;
21979;SDS011;11154;48.558;9.234;2022-09-03T05:19:57;3.58;;;1.60;;
21979;SDS011;11154;48.558;9.234;2022-09-03T05:21:59;3.20;;;1.92;;
21979;SDS011;11154;48.558;9.234;2022-09-03T05:24:01;1.98;;;1.67;;
21979;SDS011;11154;48.558;9.234;2022-09-03T05:26:04;2.95;;;2.10;;
21979;SDS011;11154;48.558;9.234;2022-09-03T05:28:08;3.30;;;1.90;;
21979;SDS011;11154;48.558;9.234;2022-09-03T05:30:10;2.85;;;1.90;;
21979;SDS011;11154;48.558;9.234;2022-09-03T05:32:12;2.33;;;2.05;;
21979;SDS011;11154;48.558;9.234;2022-09-03T05:34:17;2.80;;;1.90;;
21979;SDS011;11154;48.558;9.234;2022-09-03T05:36:19;2.72;;;1.83;;
21979;SDS011;11154;48.558;9.234;2022-09-03T05:38:23;5.70;;;2.25;;
21979;SDS011;11154;48.558;9.234;2022-09-03T05:40:24;3.47;;;2.20;;
21979;SDS011;11154;48.558;9.234;2022-09-03T05:42:26;2.85;;;2.08;;
21979;SDS011;11154;48.558;9.234;2022-09-03T05:44:28;3.03;;;2.10;;
21979;SDS011;11154;48.558;9.234;2022-09-03T05:46:30;2.50;;;1.90;;
21979;SDS011;11154;48.558;9.234;2022-09-03T05:48:33;3.97;;;1.80;;
21979;SDS011;11154;48.558;9.234;2022-09-03T05:50:38;3.08;;;1.90;;
21979;SDS011;11154;48.558;9.234;2022-09-03T05:52:39;2.42;;;1.98;;
21979;SDS011;11154;48.558;9.234;2022-09-03T05:54:41;1.98;;;1.67;;
21979;SDS011;11154;48.558;9.234;2022-09-03T05:56:42;3.30;;;1.95;;
21979;SDS011;11154;48.558;9.234;2022-09-03T05:58:45;2.33;;;1.90;;
21979;SDS011;11154;48.558;9.234;2022-09-03T06:00:48;2.40;;;1.88;;
21979;SDS011;11154;48.558;9.234;2022-09-03T06:02:49;3.97;;;2.00;;
21979;SDS011;11154;48.558;9.234;2022-09-03T06:04:52;5.53;;;2.10;;
21979;SDS011;11154;48.558;9.234;2022-09-03T06:06:57;3.15;;;2.55;;
21979;SDS011;11154;48.558;9.234;2022-09-03T06:09:00;2.25;;;1.65;;
21979;SDS011;11154;48.558;9.234;2022-09-03T06:11:03;3.17;;;2.00;;
21979;SDS011;11154;48.558;9.234;2022-09-03T06:13:06;3.75;;;2.13;;
21979;SDS011;11154;48.558;9.234;2022-09-03T06:15:08;3.83;;;2.10;;
21979;SDS011;11154;48.558;9.234;2022-09-03T06:17:10;2.97;;;2.20;;
21979;SDS011;11154;48.558;9.234;2022-09-03T06:19:14;2.53;;;2.20;;
21979;SDS011;11154;48.558;9.234;2022-09-03T06:21:16;2.67;;;2.00;;
21979;SDS011;11154;48.558;9.234;2022-09-03T06:23:19;2.72;;;1.90;;
21979;SDS011;11154;48.558;9.234;2022-09-03T06:25:21;3.38;;;2.10;;
21979;SDS011;11154;48.558;9.234;2022-09-03T06:27:23;4.60;;;2.20;;
21979;SDS011;11154;48.558;9.234;2022-09-03T06:29:24;3.83;;;2.08;;
21979;SDS011;11154;48.558;9.234;2022-09-03T06:31:26;2.10;;;1.90;;
21979;SDS011;11154;48.558;9.234;2022-09-03T06:33:28;2.85;;;1.80;;
21979;SDS011;11154;48.558;9.234;2022-09-03T06:35:31;6.30;;;2.45;;
21979;SDS011;11154;48.558;9.234;2022-09-03T06:37:37;2.70;;;1.98;;
21979;SDS011;11154;48.558;9.234;2022-09-03T06:39:41;1.92;;;1.63;;
21979;SDS011;11154;48.558;9.234;2022-09-03T06:41:43;5.43;;;2.10;;
21979;SDS011;11154;48.558;9.234;2022-09-03T06:43:45;1.92;;;1.73;;
21979;SDS011;11154;48.558;9.234;2022-09-03T06:45:55;2.28;;;2.00;;
21979;SDS011;11154;48.558;9.234;2022-09-03T06:47:57;4.10;;;1.93;;
21979;SDS011;11154;48.558;9.234;2022-09-03T06:49:59;2.45;;;1.88;;
21979;SDS011;11154;48.558;9.234;2022-09-03T06:52:01;2.75;;;1.83;;
21979;SDS011;11154;48.558;9.234;2022-09-03T06:54:03;2.83;;;1.80;;
21979;SDS011;11154;48.558;9.234;2022-09-03T06:56:08;3.20;;;2.10;;
21979;SDS011;11154;48.558;9.234;2022-09-03T06:58:11;3.40;;;1.83;;
21979;SDS011;11154;48.558;9.234;2022-09-03T07:00:13;5.88;;;2.13;;
21979;SDS011;11154;48.558;9.234;2022-09-03T07:02:16;2.30;;;1.80;;
21979;SDS011;11154;48.558;9.234;2022-09-03T07:04:18;3.10;;;2.00;;
21979;SDS011;11154;48.558;9.234;2022-09-03T07:06:22;3.97;;;2.08;;
21979;SDS011;11154;48.558;9.234;2022-09-03T07:08:25;2.70;;;2.03;;
21979;SDS011;11154;48.558;9.234;2022-09-03T07:10:26;4.00;;;2.40;;
21979;SDS011;11154;48.558;9.234;2022-09-03T07:12:29;3.25;;;2.10;;
21979;SDS011;11154;48.558;9.234;2022-09-03T07:14:35;4.63;;;2.30;;
21979;SDS011;11154;48.558;9.234;2022-09-03T07:16:37;2.85;;;2.10;;
21979;SDS011;11154;48.558;9.234;2022-09-03T07:18:41;2.83;;;2.25;;
21979;SDS011;11154;48.558;9.234;2022-09-03T07:20:43;4.15;;;2.20;;
21979;SDS011;11154;48.558;9.234;2022-09-03T07:22:45;2.58;;;1.90;;
21979;SDS011;11154;48.558;9.234;2022-09-03T07:24:46;3.63;;;2.00;;
21979;SDS011;11154;48.558;9.234;2022-09-03T07:26:51;2.45;;;2.05;;
21979;SDS011;11154;48.558;9.234;2022-09-03T07:28:56;2.90;;;2.00;;
21979;SDS011;11154;48.558;9.234;2022-09-03T07:31:00;2.50;;;2.13;;
21979;SDS011;11154;48.558;9.234;2022-09-03T07:33:04;3.35;;;2.00;;
21979;SDS011;11154;48.558;9.234;2022-09-03T07:35:06;4.38;;;2.30;;
21979;SDS011;11154;48.558;9.234;2022-09-03T07:37:08;3.90;;;2.20;;
21979;SDS011;11154;48.558;9.234;2022-09-03T07:39:10;3.30;;;2.17;;
21979;SDS011;11154;48.558;9.234;2022-09-03T07:41:13;2.72;;;2.00;;
21979;SDS011;11154;48.558;9.234;2022-09-03T07:43:15;2.30;;;2.08;;
21979;SDS011;11154;48.558;9.234;2022-09-03T07:45:19;5.82;;;2.20;;
21979;SDS011;11154;48.558;9.234;2022-09-03T07:47:20;2.38;;;1.88;;
21979;SDS011;11154;48.558;9.234;2022-09-03T07:49:22;2.53;;;2.30;;
21979;SDS011;11154;48.558;9.234;2022-09-03T07:51:25;3.38;;;2.35;;
21979;SDS011;11154;48.558;9.234;2022-09-03T07:53:28;2.38;;;2.05;;
21979;SDS011;11154;48.558;9.234;2022-09-03T07:55:30;3.00;;;2.30;;
21979;SDS011;11154;48.558;9.234;2022-09-03T07:57:32;2.30;;;2.10;;
21979;SDS011;11154;48.558;9.234;2022-09-03T07:59:34;2.97;;;2.17;;
21979;SDS011;11154;48.558;9.234;2022-09-03T08:01:37;2.20;;;1.92;;
21979;SDS011;11154;48.558;9.234;2022-09-03T08:03:42;2.17;;;1.95;;
21979;SDS011;11154;48.558;9.234;2022-09-03T08:05:45;3.80;;;2.10;;
21979;SDS011;11154;48.558;9.234;2022-09-03T08:07:46;4.05;;;2.08;;
21979;SDS011;11154;48.558;9.234;2022-09-03T08:09:48;3.13;;;1.95;;
21979;SDS011;11154;48.558;9.234;2022-09-03T08:11:50;5.57;;;2.17;;
21979;SDS011;11154;48.558;9.234;2022-09-03T08:13:53;3.60;;;1.95;;
21979;SDS011;11154;48.558;9.234;2022-09-03T08:16:00;4.60;;;1.63;;
21979;SDS011;11154;48.558;9.234;2022-09-03T08:18:03;2.80;;;2.13;;
21979;SDS011;11154;48.558;9.234;2022-09-03T08:20:05;2.30;;;1.80;;
21979;SDS011;11154;48.558;9.234;2022-09-03T08:22:09;2.60;;;1.80;;
21979;SDS011;11154;48.558;9.234;2022-09-03T08:24:10;2.35;;;1.80;;
21979;SDS011;11154;48.558;9.234;2022-09-03T08:26:14;2.38;;;1.92;;
21979;SDS011;11154;48.558;9.234;2022-09-03T08:28:17;2.50;;;1.73;;
21979;SDS011;11154;48.558;9.234;2022-09-03T08:30:19;2.33;;;1.70;;
21979;SDS011;11154;48.558;9.234;2022-09-03T08:32:20;1.67;;;1.50;;
21979;SDS011;11154;48.558;9.234;2022-09-03T08:34:23;2.25;;;1.90;;
21979;SDS011;11154;48.558;9.234;2022-09-03T08:36:26;2.38;;;1.58;;
21979;SDS011;11154;48.558;9.234;2022-09-03T08:38:30;2.03;;;1.83;;
21979;SDS011;11154;48.558;9.234;2022-09-03T08:40:32;4.15;;;2.05;;
21979;SDS011;11154;48.558;9.234;2022-09-03T08:42:39;2.80;;;1.80;;
21979;SDS011;11154;48.558;9.234;2022-09-03T08:44:50;3.83;;;2.08;;
21979;SDS011;11154;48.558;9.234;2022-09-03T08:46:56;3.35;;;1.95;;
21979;SDS011;11154;48.558;9.234;2022-09-03T08:49:02;2.08;;;1.88;;
21979;SDS011;11154;48.558;9.234;2022-09-03T08:51:07;1.63;;;1.50;;
21979;SDS011;11154;48.558;9.234;2022-09-03T08:53:12;5.78;;;1.95;;
21979;SDS011;11154;48.558;9.234;2022-09-03T08:55:20;5.50;;;3.80;;
21979;SDS011;11154;48.558;9.234;2022-09-03T08:57:26;3.17;;;1.90;;
21979;SDS011;11154;48.558;9.234;2022-09-03T08:59:32;1.70;;;1.40;;
21979;SDS011;11154;48.558;9.234;2022-09-03T09:01:36;2.08;;;1.58;;
21979;SDS011;11154;48.558;9.234;2022-09-03T09:03:49;1.60;;;1.50;;
21979;SDS011;11154;48.558;9.234;2022-09-03T09:05:57;2.95;;;1.80;;
21979;SDS011;11154;48.558;9.234;2022-09-03T09:08:09;2.65;;;1.60;;
21979;SDS011;11154;48.558;9.234;2022-09-03T09:10:19;2.65;;;1.77;;
21979;SDS011;11154;48.558;9.234;2022-09-03T09:12:32;2.63;;;2.25;;
21979;SDS011;11154;48.558;9.234;2022-09-03T09:14:40;2.85;;;1.85;;
21979;SDS011;11154;48.558;9.234;2022-09-03T09:16:49;3.38;;;1.67;;
21979;SDS011;11154;48.558;9.234;2022-09-03T09:19:02;5.18;;;1.80;;
21979;SDS011;11154;48.558;9.234;2022-09-03T09:21:17;2.17;;;1.83;;
21979;SDS011;11154;48.558;9.234;2022-09-03T09:23:26;1.88;;;1.70;;
21979;SDS011;11154;48.558;9.234;2022-09-03T09:25:30;1.80;;;1.63;;
21979;SDS011;11154;48.558;9.234;2022-09-03T09:27:39;2.53;;;2.15;;
21979;SDS011;11154;48.558;9.234;2022-09-03T09:29:50;2.40;;;1.90;;
21979;SDS011;11154;48.558;9.234;2022-09-03T09:31:54;2.17;;;1.90;;
21979;SDS011;11154;48.558;9.234;2022-09-03T09:33:59;2.08;;;1.85;;
21979;SDS011;11154;48.558;9.234;2022-09-03T09:36:05;2.03;;;1.60;;
21979;SDS011;11154;48.558;9.234;2022-09-03T09:38:12;2.45;;;1.45;;
21979;SDS011;11154;48.558;9.234;2022-09-03T09:40:23;3.20;;;1.60;;
21979;SDS011;11154;48.558;9.234;2022-09-03T09:42:26;2.00;;;1.50;;
21979;SDS011;11154;48.558;9.234;2022-09-03T09:44:29;2.33;;;1.65;;
21979;SDS011;11154;48.558;9.234;2022-09-03T09:46:33;1.70;;;1.60;;
21979;SDS011;11154;48.558;9.234;2022-09-03T09:48:38;2.70;;;1.60;;
21979;SDS011;11154;48.558;9.234;2022-09-03T09:50:47;1.45;;;1.27;;
21979;SDS011;11154;48.558;9.234;2022-09-03T09:52:58;2.45;;;1.60;;
21979;SDS011;11154;48.558;9.234;2022-09-03T09:55:07;1.80;;;1.70;;
21979;SDS011;11154;48.558;9.234;2022-09-03T09:57:14;1.65;;;1.55;;
21979;SDS011;11154;48.558;9.234;2022-09-03T09:59:18;1.95;;;1.42;;
21979;SDS011;11154;48.558;9.234;2022-09-03T10:01:20;1.80;;;1.50;;
21979;SDS011;11154;48.558;9.234;2022-09-03T10:03:25;1.95;;;1.70;;
21979;SDS011;11154;48.558;9.234;2022-09-03T10:05:30;2.03;;;1.67;;
21979;SDS011;11154;48.558;9.234;2022-09-03T10:07:33;1.52;;;1.42;;
21979;SDS011;11154;48.558;9.234;2022-09-03T10:09:35;3.53;;;1.73;;
21979;SDS011;11154;48.558;9.234;2022-09-03T10:11:37;3.08;;;1.50;;
21979;SDS011;11154;48.558;9.234;2022-09-03T10:13:44;1.88;;;1.38;;
21979;SDS011;11154;48.558;9.234;2022-09-03T10:15:49;1.67;;;1.58;;
21979;SDS011;11154;48.558;9.234;2022-09-03T10:17:56;2.95;;;1.80;;
21979;SDS011;11154;48.558;9.234;2022-09-03T10:20:04;1.58;;;1.48;;
21979;SDS011;11154;48.558;9.234;2022-09-03T10:22:31;2.03;;;1.63;;
21979;SDS011;11154;48.558;9.234;2022-09-03T10:24:43;1.70;;;1.60;;
21979;SDS011;11154;48.558;9.234;2022-09-03T10:26:53;3.00;;;1.67;;
21979;SDS011;11154;48.558;9.234;2022-09-03T10:28:59;1.63;;;1.52;;
21979;SDS011;11154;48.558;9.234;2022-09-03T10:31:07;1.88;;;1.50;;
21979;SDS011;11154;48.558;9.234;2022-09-03T10:35:26;1.90;;;1.60;;
21979;SDS011;11154;48.558;9.234;2022-09-03T10:37:33;2.67;;;1.67;;
21979;SDS011;11154;48.558;9.234;2022-09-03T10:39:42;2.00;;;1.80;;
21979;SDS011;11154;48.558;9.234;2022-09-03T10:42:02;3.40;;;2.00;;
21979;SDS011;11154;48.558;9.234;2022-09-03T10:44:26;2.15;;;1.80;;
21979;SDS011;11154;48.558;9.234;2022-09-03T10:46:41;5.10;;;1.92;;
21979;SDS011;11154;48.558;9.234;2022-09-03T10:49:01;1.90;;;1.80;;
21979;SDS011;11154;48.558;9.234;2022-09-03T10:51:19;3.97;;;1.70;;
21979;SDS011;11154;48.558;9.234;2022-09-03T10:53:29;2.08;;;1.70;;
21979;SDS011;11154;48.558;9.234;2022-09-03T10:55:50;1.83;;;1.70;;
21979;SDS011;11154;48.558;9.234;2022-09-03T10:58:03;3.95;;;1.83;;
21979;SDS011;11154;48.558;9.234;2022-09-03T11:00:18;1.80;;;1.70;;
21979;SDS011;11154;48.558;9.234;2022-09-03T11:04:59;2.55;;;1.98;;
21979;SDS011;11154;48.558;9.234;2022-09-03T11:07:07;2.50;;;1.88;;
21979;SDS011;11154;48.558;9.234;2022-09-03T11:09:12;1.70;;;1.60;;
21979;SDS011;11154;48.558;9.234;2022-09-03T11:11:20;1.75;;;1.65;;
21979;SDS011;11154;48.558;9.234;2022-09-03T11:13:27;1.90;;;1.70;;
21979;SDS011;11154;48.558;9.234;2022-09-03T11:15:36;2.33;;;1.80;;
21979;SDS011;11154;48.558;9.234;2022-09-03T11:17:45;1.90;;;1.63;;
21979;SDS011;11154;48.558;9.234;2022-09-03T11:19:49;2.08;;;1.88;;
21979;SDS011;11154;48.558;9.234;2022-09-03T11:21:56;4.18;;;2.40;;
21979;SDS011;11154;48.558;9.234;2022-09-03T11:24:02;1.98;;;1.85;;
21979;SDS011;11154;48.558;9.234;2022-09-03T11:26:10;2.05;;;1.77;;
21979;SDS011;11154;48.558;9.234;2022-09-03T11:28:15;2.95;;;1.90;;
21979;SDS011;11154;48.558;9.234;2022-09-03T11:30:28;1.92;;;1.80;;
21979;SDS011;11154;48.558;9.234;2022-09-03T11:34:48;2.80;;;2.00;;
21979;SDS011;11154;48.558;9.234;2022-09-03T11:36:51;1.83;;;1.70;;
21979;SDS011;11154;48.558;9.234;2022-09-03T11:39:17;4.97;;;1.95;;
21979;SDS011;11154;48.558;9.234;2022-09-03T11:41:24;2.92;;;2.08;;
21979;SDS011;11154;48.558;9.234;2022-09-03T11:43:28;2.10;;;1.90;;
21979;SDS011;11154;48.558;9.234;2022-09-03T11:45:35;2.92;;;2.10;;
21979;SDS011;11154;48.558;9.234;2022-09-03T11:47:38;2.30;;;2.10;;
21979;SDS011;11154;48.558;9.234;2022-09-03T11:49:43;3.85;;;2.47;;
21979;SDS011;11154;48.558;9.234;2022-09-03T11:51:54;2.25;;;1.98;;
21979;SDS011;11154;48.558;9.234;2022-09-03T11:53:59;2.13;;;1.70;;
21979;SDS011;11154;48.558;9.234;2022-09-03T11:56:11;4.18;;;1.58;;
21979;SDS011;11154;48.558;9.234;2022-09-03T11:58:18;1.73;;;1.30;;
21979;SDS011;11154;48.558;9.234;2022-09-03T12:00:26;3.35;;;1.20;;
21979;SDS011;11154;48.558;9.234;2022-09-03T12:02:28;4.60;;;1.42;;
21979;SDS011;11154;48.558;9.234;2022-09-03T12:04:34;2.15;;;1.30;;
21979;SDS011;11154;48.558;9.234;2022-09-03T12:06:52;3.92;;;1.33;;
21979;SDS011;11154;48.558;9.234;2022-09-03T12:09:05;3.10;;;1.20;;
21979;SDS011;11154;48.558;9.234;2022-09-03T12:11:24;2.45;;;1.20;;
21979;SDS011;11154;48.558;9.234;2022-09-03T12:13:39;2.80;;;1.38;;
21979;SDS011;11154;48.558;9.234;2022-09-03T12:15:59;3.22;;;1.60;;
21979;SDS011;11154;48.558;9.234;2022-09-03T12:18:22;2.55;;;1.17;;
21979;SDS011;11154;48.558;9.234;2022-09-03T12:20:27;2.72;;;1.30;;
21979;SDS011;11154;48.558;9.234;2022-09-03T12:22:29;5.03;;;1.20;;
21979;SDS011;11154;48.558;9.234;2022-09-03T12:24:37;3.00;;;1.20;;
21979;SDS011;11154;48.558;9.234;2022-09-03T12:26:42;2.90;;;1.42;;
21979;SDS011;11154;48.558;9.234;2022-09-03T12:28:46;2.80;;;1.10;;
21979;SDS011;11154;48.558;9.234;2022-09-03T12:30:49;4.43;;;1.08;;
21979;SDS011;11154;48.558;9.234;2022-09-03T12:33:01;5.75;;;1.50;;
21979;SDS011;11154;48.558;9.234;2022-09-03T12:35:11;3.45;;;1.10;;
21979;SDS011;11154;48.558;9.234;2022-09-03T12:37:19;4.43;;;1.38;;
21979;SDS011;11154;48.558;9.234;2022-09-03T12:39:23;1.83;;;0.80;;
21979;SDS011;11154;48.558;9.234;2022-09-03T12:41:28;3.33;;;0.95;;
21979;SDS011;11154;48.558;9.234;2022-09-03T12:43:31;4.30;;;1.58;;
21979;SDS011;11154;48.558;9.234;2022-09-03T12:45:40;3.78;;;1.02;;
21979;SDS011;11154;48.558;9.234;2022-09-03T12:47:44;2.08;;;0.88;;
21979;SDS011;11154;48.558;9.234;2022-09-03T12:49:46;1.58;;;0.80;;